createdAt,value
2022-09-04T00:01:04.383Z,39.79
2022-09-04T00:03:40.618Z,39.76
2022-09-04T00:06:13.366Z,40.05
2022-09-04T00:08:58.248Z,39.86
2022-09-04T00:11:39.274Z,39.78
2022-09-04T00:14:12.190Z,39.60
2022-09-04T00:16:43.763Z,39.89
2022-09-04T00:19:17.790Z,40.25
2022-09-04T00:21:49.854Z,39.95
2022-09-04T00:24:20.068Z,39.67
2022-09-04T00:26:54.501Z,40.20
2022-09-04T00:29:28.682Z,39.93
2022-09-04T00:32:02.639Z,39.91
2022-09-04T00:35:05.862Z,39.97
2022-09-04T00:37:38.216Z,39.70
2022-09-04T00:40:11.221Z,39.69
2022-09-04T00:42:53.681Z,40.03
2022-09-04T00:45:30.396Z,39.67
2022-09-04T00:48:34.653Z,39.65
2022-09-04T00:51:18.236Z,39.73
2022-09-04T00:54:11.689Z,39.70
2022-09-04T00:57:04.170Z,39.74
2022-09-04T01:00:04.666Z,39.75
2022-09-04T01:02:43.067Z,40.10
2022-09-04T01:05:20.509Z,39.98
2022-09-04T01:07:56.836Z,39.84
2022-09-04T01:10:37.527Z,39.89
2022-09-04T01:13:13.044Z,40.10
2022-09-04T01:15:45.801Z,40.10
2022-09-04T01:18:18.061Z,40.01
2022-09-04T01:21:01.518Z,39.96
2022-09-04T01:23:46.605Z,40.03
2022-09-04T01:26:21.020Z,39.77
2022-09-04T01:29:00.210Z,39.93
2022-09-04T01:31:36.659Z,39.72
2022-09-04T01:34:18.705Z,39.70
2022-09-04T01:36:50.809Z,40.10
2022-09-04T01:39:22.283Z,39.98
2022-09-04T01:41:54.514Z,39.95
2022-09-04T01:44:23.865Z,39.96
2022-09-04T01:47:18.545Z,40.10
2022-09-04T01:49:52.408Z,39.87
2022-09-04T01:52:38.951Z,39.74
2022-09-04T01:55:14.350Z,40.02
2022-09-04T01:58:02.735Z,39.87
2022-09-04T02:00:34.641Z,39.88
2022-09-04T02:03:10.316Z,39.87
2022-09-04T02:05:48.739Z,39.94
2022-09-04T02:08:55.819Z,40.08
2022-09-04T02:11:28.115Z,39.80
2022-09-04T02:14:16.045Z,39.97
2022-09-04T02:16:58.864Z,39.92
2022-09-04T02:19:43.573Z,39.69
2022-09-04T02:22:21.520Z,40.19
2022-09-04T02:24:55.058Z,40.04
2022-09-04T02:27:28.179Z,39.98
2022-09-04T02:30:03.049Z,39.96
2022-09-04T02:32:38.681Z,39.74
2022-09-04T02:35:14.542Z,40.02
2022-09-04T02:37:54.277Z,39.85
2022-09-04T02:40:28.689Z,39.81
2022-09-04T02:43:10.401Z,39.84
2022-09-04T02:45:47.475Z,39.92
2022-09-04T02:48:24.662Z,39.88
2022-09-04T02:51:14.459Z,39.96
2022-09-04T02:53:48.229Z,40.02
2022-09-04T02:56:27.083Z,39.82
2022-09-04T02:59:13.285Z,39.98
2022-09-04T03:01:52.100Z,39.90
2022-09-04T03:04:27.953Z,40.13
2022-09-04T03:07:02.985Z,39.79
2022-09-04T03:09:37.699Z,40.13
2022-09-04T03:12:26.482Z,39.74
2022-09-04T03:15:03.738Z,40.14
2022-09-04T03:17:47.525Z,40.00
2022-09-04T03:20:21.225Z,39.80
2022-09-04T03:22:54.201Z,40.02
2022-09-04T03:25:56.032Z,40.00
2022-09-04T03:28:37.024Z,40.10
2022-09-04T03:31:25.553Z,39.88
2022-09-04T03:34:25.335Z,39.57
2022-09-04T03:37:15.804Z,39.99
2022-09-04T03:39:56.016Z,39.58
2022-09-04T03:42:33.221Z,39.90
2022-09-04T03:45:14.043Z,40.01
2022-09-04T03:47:50.089Z,40.01
2022-09-04T03:50:28.509Z,39.91
2022-09-04T03:53:02.411Z,40.03
2022-09-04T03:55:56.906Z,40.06
2022-09-04T03:58:29.383Z,40.10
2022-09-04T04:01:04.639Z,39.60
2022-09-04T04:03:55.997Z,39.95
2022-09-04T04:06:32.373Z,39.82
2022-09-04T04:09:32.791Z,39.54
2022-09-04T04:12:28.212Z,39.77
2022-09-04T04:15:07.973Z,39.66
2022-09-04T04:18:05.947Z,39.62
2022-09-04T04:20:43.263Z,40.02
2022-09-04T04:23:58.438Z,39.59
2022-09-04T04:26:44.127Z,39.93
2022-09-04T04:29:38.669Z,39.68
2022-09-04T04:32:31.391Z,39.86
2022-09-04T04:35:17.655Z,39.61
2022-09-04T04:38:03.178Z,39.98
2022-09-04T04:40:49.414Z,39.91
2022-09-04T04:43:23.576Z,39.78
2022-09-04T04:45:56.450Z,39.73
2022-09-04T04:48:57.806Z,39.71
2022-09-04T04:51:44.580Z,39.63
2022-09-04T04:54:36.814Z,39.90
2022-09-04T04:57:14.962Z,39.71
2022-09-04T04:59:49.214Z,40.05
2022-09-04T05:02:23.775Z,39.71
2022-09-04T05:05:03.641Z,39.76
2022-09-04T05:07:38.240Z,39.99
2022-09-04T05:10:18.635Z,40.03
2022-09-04T05:13:00.526Z,39.92
2022-09-04T05:15:48.469Z,39.67
2022-09-04T05:18:32.512Z,40.01
2022-09-04T05:21:08.235Z,39.88
2022-09-04T05:23:41.146Z,39.81
2022-09-04T05:26:15.951Z,40.20
2022-09-04T05:28:55.121Z,40.21
2022-09-04T05:31:41.142Z,39.84
2022-09-04T05:34:16.624Z,39.82
2022-09-04T05:36:54.359Z,39.74
2022-09-04T05:39:30.738Z,40.02
2022-09-04T05:42:14.148Z,39.99
2022-09-04T05:44:59.039Z,39.98
2022-09-04T05:47:35.996Z,40.06
2022-09-04T05:50:45.623Z,39.90
2022-09-04T05:53:35.334Z,39.83
2022-09-04T05:56:29.308Z,39.98
2022-09-04T05:59:28.162Z,40.22
2022-09-04T06:02:27.069Z,40.15
2022-09-04T06:05:12.952Z,39.92
2022-09-04T06:07:47.399Z,39.81
2022-09-04T06:10:19.375Z,40.05
2022-09-04T06:13:21.778Z,39.79
2022-09-04T06:15:59.976Z,40.08
2022-09-04T06:18:45.693Z,39.83
2022-09-04T06:21:50.997Z,40.15
2022-09-04T06:24:37.454Z,39.98
2022-09-04T06:27:20.706Z,40.55
2022-09-04T06:30:08.978Z,39.99
2022-09-04T06:33:13.672Z,39.84
2022-09-04T06:36:19.542Z,40.24
2022-09-04T06:39:03.488Z,39.94
2022-09-04T06:41:47.748Z,40.38
2022-09-04T06:44:21.660Z,40.43
2022-09-04T06:46:57.960Z,40.14
2022-09-04T06:49:35.217Z,40.30
2022-09-04T06:52:15.836Z,40.46
2022-09-04T06:54:54.498Z,40.46
2022-09-04T06:57:54.624Z,40.63
2022-09-04T07:00:23.695Z,40.77
2022-09-04T07:03:20.664Z,40.48
2022-09-04T07:05:55.988Z,40.92
2022-09-04T07:08:39.121Z,40.92
2022-09-04T07:11:31.295Z,40.63
2022-09-04T07:14:28.491Z,40.44
2022-09-04T07:17:05.379Z,40.62
2022-09-04T07:20:02.578Z,40.39
2022-09-04T07:23:04.250Z,40.48
2022-09-04T07:25:45.622Z,40.55
2022-09-04T07:28:49.139Z,40.79
2022-09-04T07:31:21.524Z,40.93
2022-09-04T07:33:57.050Z,40.59
2022-09-04T07:36:33.284Z,40.92
2022-09-04T07:39:08.834Z,41.01
2022-09-04T07:41:45.770Z,40.46
2022-09-04T07:44:18.930Z,40.61
2022-09-04T07:46:53.664Z,40.58
2022-09-04T07:49:30.830Z,40.75
2022-09-04T07:52:16.167Z,40.64
2022-09-04T07:55:03.666Z,40.32
2022-09-04T07:58:09.886Z,40.76
2022-09-04T08:00:44.919Z,40.34
2022-09-04T08:03:54.640Z,40.44
2022-09-04T08:06:27.953Z,40.66
2022-09-04T08:09:17.726Z,40.83
2022-09-04T08:12:29.122Z,40.46
2022-09-04T08:15:05.949Z,40.51
2022-09-04T08:17:50.043Z,40.85
2022-09-04T08:20:33.269Z,40.74
2022-09-04T08:23:10.883Z,40.75
2022-09-04T08:25:52.283Z,40.71
2022-09-04T08:28:57.325Z,40.52
2022-09-04T08:31:31.394Z,41.20
2022-09-04T08:35:04.193Z,40.67
2022-09-04T08:37:38.507Z,40.55
2022-09-04T08:41:18.369Z,40.55
2022-09-04T08:44:44.215Z,40.87
2022-09-04T08:47:46.264Z,40.46
2022-09-04T08:50:27.549Z,40.60
2022-09-04T08:53:32.505Z,40.61
2022-09-04T08:56:27.503Z,40.75
2022-09-04T08:59:59.362Z,40.76
2022-09-04T09:03:34.386Z,40.68
2022-09-04T09:06:58.766Z,40.96
2022-09-04T09:10:19.913Z,40.91
2022-09-04T09:13:18.905Z,40.98
2022-09-04T09:16:07.499Z,40.76
2022-09-04T09:18:40.670Z,40.88
2022-09-04T09:21:11.629Z,40.92
2022-09-04T09:23:52.198Z,40.92
2022-09-04T09:26:26.810Z,40.83
2022-09-04T09:29:39.778Z,40.72
2022-09-04T09:33:04.286Z,41.14
2022-09-04T09:36:04.823Z,40.91
2022-09-04T09:39:09.806Z,41.13
2022-09-04T09:42:22.421Z,40.85
2022-09-04T09:45:28.060Z,41.43
2022-09-04T09:48:40.971Z,41.41
2022-09-04T09:52:08.615Z,41.01
2022-09-04T09:55:26.863Z,41.33
2022-09-04T09:58:46.402Z,41.17
2022-09-04T10:01:40.160Z,41.52
2022-09-04T10:04:40.192Z,41.61
2022-09-04T10:08:19.196Z,41.36
2022-09-04T10:11:54.219Z,41.43
2022-09-04T10:15:14.808Z,42.07
2022-09-04T10:18:25.785Z,41.26
2022-09-04T10:21:26.947Z,42.12
2022-09-04T10:24:27.677Z,41.96
2022-09-04T10:27:16.552Z,41.95
2022-09-04T10:30:00.672Z,41.95
2022-09-04T10:33:18.855Z,42.14
2022-09-04T10:35:58.495Z,42.04
2022-09-04T10:38:59.974Z,42.20
2022-09-04T10:42:00.375Z,42.29
2022-09-04T10:44:51.588Z,42.15
2022-09-04T10:47:43.382Z,42.06
2022-09-04T10:51:01.970Z,42.41
2022-09-04T10:54:07.843Z,42.50
2022-09-04T10:56:39.651Z,42.87
2022-09-04T10:59:31.761Z,42.71
2022-09-04T11:03:08.178Z,42.64
2022-09-04T11:06:31.750Z,42.11
2022-09-04T11:09:28.778Z,42.84
2022-09-04T11:12:48.233Z,42.26
2022-09-04T11:16:01.440Z,42.19
2022-09-04T11:19:34.300Z,42.35
2022-09-04T11:22:44.920Z,42.12
2022-09-04T11:25:47.896Z,43.06
2022-09-04T11:28:41.337Z,43.49
2022-09-04T11:31:26.432Z,43.90
2022-09-04T11:34:46.903Z,44.10
2022-09-04T11:38:00.841Z,44.45
2022-09-04T11:41:31.343Z,44.20
2022-09-04T11:44:51.076Z,44.58
2022-09-04T11:48:02.373Z,44.45
2022-09-04T11:51:16.596Z,44.31
2022-09-04T11:54:21.242Z,44.58
2022-09-04T11:57:04.803Z,44.26
2022-09-04T12:00:11.861Z,44.49
2022-09-04T12:03:27.777Z,45.23
2022-09-04T12:06:14.702Z,43.90
2022-09-04T12:09:21.216Z,43.98
2022-09-04T12:12:36.618Z,43.70
2022-09-04T12:15:51.510Z,43.39
2022-09-04T12:18:55.311Z,44.29
2022-09-04T12:22:01.596Z,43.53
2022-09-04T12:25:45.126Z,43.92
2022-09-04T12:29:09.276Z,43.45
2022-09-04T12:31:58.262Z,44.16
2022-09-04T12:34:56.131Z,47.02
2022-09-04T12:37:48.578Z,45.70
2022-09-04T12:40:35.816Z,45.17
2022-09-04T12:43:20.296Z,47.76
2022-09-04T12:45:58.482Z,48.16
2022-09-04T12:48:38.362Z,48.50
2022-09-04T12:51:12.354Z,48.10
2022-09-04T12:54:14.565Z,48.57
2022-09-04T12:56:49.281Z,48.01
2022-09-04T12:59:36.325Z,47.82
2022-09-04T13:02:10.485Z,48.35
2022-09-04T13:04:47.723Z,46.95
2022-09-04T13:07:27.843Z,48.03
2022-09-04T13:10:02.901Z,47.90
2022-09-04T13:12:36.619Z,48.23
2022-09-04T13:15:22.431Z,47.67
2022-09-04T13:17:58.661Z,46.98
2022-09-04T13:20:35.137Z,47.57
2022-09-04T13:23:17.719Z,48.20
2022-09-04T13:26:02.192Z,48.48
2022-09-04T13:28:38.606Z,48.77
2022-09-04T13:31:33.571Z,48.26
2022-09-04T13:34:11.045Z,48.14
2022-09-04T13:36:49.577Z,48.01
2022-09-04T13:39:40.787Z,48.23
2022-09-04T13:42:48.540Z,48.33
2022-09-04T13:45:23.359Z,47.80
2022-09-04T13:47:55.231Z,47.84
2022-09-04T13:50:29.391Z,48.13
2022-09-04T13:52:59.730Z,47.65
2022-09-04T13:55:30.745Z,48.06
2022-09-04T13:58:10.622Z,48.07
2022-09-04T14:00:45.906Z,48.10
2022-09-04T14:03:19.087Z,48.08
2022-09-04T14:05:49.173Z,48.34
2022-09-04T14:08:18.930Z,47.79
2022-09-04T14:11:13.181Z,48.23
2022-09-04T14:13:56.365Z,48.30
2022-09-04T14:16:25.303Z,47.79
2022-09-04T14:19:16.356Z,48.39
2022-09-04T14:22:09.465Z,48.39
2022-09-04T14:24:42.259Z,48.08
2022-09-04T14:27:15.200Z,48.51
2022-09-04T14:29:55.906Z,48.28
2022-09-04T14:32:32.299Z,48.57
2022-09-04T14:35:08.741Z,47.79
2022-09-04T14:38:15.082Z,47.49
2022-09-04T14:40:49.243Z,47.82
2022-09-04T14:43:22.692Z,47.40
2022-09-04T14:46:07.078Z,48.21
2022-09-04T14:48:40.690Z,47.76
2022-09-04T14:51:17.218Z,47.80
2022-09-04T14:53:51.454Z,48.58
2022-09-04T14:56:26.663Z,48.59
2022-09-04T14:58:59.093Z,48.39
2022-09-04T15:01:29.780Z,48.33
2022-09-04T15:04:00.510Z,48.33
2022-09-04T15:06:37.846Z,48.21
2022-09-04T15:09:28.500Z,48.36
2022-09-04T15:12:21.109Z,48.48
2022-09-04T15:14:47.602Z,48.55
2022-09-04T15:17:16.933Z,48.01
2022-09-04T15:19:48.076Z,48.53
2022-09-04T15:22:19.946Z,48.49
2022-09-04T15:24:55.979Z,48.35
2022-09-04T15:27:29.007Z,48.19
2022-09-04T15:30:05.477Z,48.32
2022-09-04T15:32:39.832Z,48.37
2022-09-04T15:35:17.874Z,48.79
2022-09-04T15:37:48.578Z,48.52
2022-09-04T15:40:28.607Z,48.45
2022-09-04T15:43:03.674Z,48.21
2022-09-04T15:45:41.500Z,48.40
2022-09-04T15:48:26.548Z,48.26
2022-09-04T15:51:11.871Z,48.37
2022-09-04T15:53:42.248Z,48.59
2022-09-04T15:56:31.337Z,48.16
2022-09-04T15:59:05.983Z,47.77
2022-09-04T16:01:43.452Z,48.25
2022-09-04T16:04:17.378Z,48.02
2022-09-04T16:06:48.081Z,48.48
2022-09-04T16:09:23.585Z,48.26
2022-09-04T16:12:02.843Z,47.93
2022-09-04T16:14:34.665Z,48.01
2022-09-04T16:17:13.713Z,47.76
2022-09-04T16:19:46.921Z,47.38
2022-09-04T16:22:27.368Z,47.39
2022-09-04T16:24:59.022Z,48.05
2022-09-04T16:27:29.856Z,47.76
2022-09-04T16:30:01.648Z,48.02
2022-09-04T16:32:34.286Z,48.40
2022-09-04T16:35:05.001Z,47.96
2022-09-04T16:37:37.658Z,48.53
2022-09-04T16:40:19.969Z,48.54
2022-09-04T16:42:51.544Z,48.32
2022-09-04T16:45:23.114Z,48.57
2022-09-04T16:47:55.590Z,48.54
2022-09-04T16:50:27.918Z,48.02
2022-09-04T16:53:13.749Z,48.47
2022-09-04T16:55:48.881Z,47.90
2022-09-04T16:58:35.460Z,47.61
2022-09-04T17:01:14.715Z,48.06
2022-09-04T17:04:13.204Z,47.89
2022-09-04T17:07:02.584Z,47.84
2022-09-04T17:09:48.031Z,48.45
2022-09-04T17:12:24.050Z,48.60
2022-09-04T17:14:57.370Z,49.00
2022-09-04T17:17:31.300Z,48.78
2022-09-04T17:20:09.037Z,49.04
2022-09-04T17:28:54.142Z,48.76
2022-09-04T17:28:58.403Z,48.82
2022-09-04T17:29:08.634Z,48.38
2022-09-04T17:31:45.597Z,48.91
2022-09-04T17:38:53.724Z,48.75
2022-09-04T17:40:50.972Z,48.73
2022-09-04T17:41:28.922Z,48.86
2022-09-04T17:43:22.723Z,48.62
2022-09-04T17:45:54.573Z,48.67
2022-09-04T17:48:27.668Z,48.81
2022-09-04T17:50:58.852Z,48.99
2022-09-04T17:53:33.393Z,48.99
2022-09-04T17:56:08.244Z,48.93
2022-09-04T17:58:39.625Z,49.27
2022-09-04T18:01:14.935Z,49.05
2022-09-04T18:04:20.329Z,48.86
2022-09-04T18:06:46.599Z,49.53
2022-09-04T18:09:26.695Z,48.99
2022-09-04T18:12:03.459Z,49.76
2022-09-04T18:14:37.593Z,49.32
2022-09-04T18:17:12.577Z,49.49
2022-09-04T18:19:46.276Z,49.44
2022-09-04T18:22:32.041Z,48.77
2022-09-04T18:25:15.851Z,49.01
2022-09-04T18:28:11.765Z,49.28
2022-09-04T18:37:07.652Z,48.94
2022-09-04T18:37:19.847Z,49.04
2022-09-04T18:37:20.411Z,48.94
2022-09-04T18:39:50.805Z,49.08
2022-09-04T18:50:29.343Z,48.77
2022-09-04T18:50:34.627Z,49.03
2022-09-04T18:50:35.749Z,48.81
2022-09-04T18:51:21.084Z,50.00
2022-09-04T18:53:54.189Z,50.70
2022-09-04T18:56:26.555Z,50.61
2022-09-04T18:59:00.630Z,50.09
2022-09-04T19:01:37.977Z,50.38
2022-09-04T19:04:41.195Z,50.33
2022-09-04T19:07:11.326Z,49.78
2022-09-04T19:10:10.836Z,49.63
2022-09-04T19:12:48.040Z,49.19
2022-09-04T19:15:45.956Z,49.83
2022-09-04T19:18:26.873Z,50.06
2022-09-04T19:21:16.718Z,50.85
2022-09-04T19:23:50.112Z,50.43
2022-09-04T19:26:27.196Z,50.28
2022-09-04T19:28:57.347Z,49.84
2022-09-04T19:31:31.408Z,49.47
2022-09-04T19:34:04.420Z,49.79
2022-09-04T19:36:38.361Z,50.27
2022-09-04T19:45:55.352Z,50.16
2022-09-04T19:46:19.485Z,50.04
2022-09-04T19:46:26.125Z,50.39
2022-09-04T19:48:01.187Z,50.14
2022-09-04T19:53:21.748Z,50.35
2022-09-04T19:53:43.772Z,50.33
2022-09-04T19:56:27.243Z,50.00
2022-09-04T19:59:03.852Z,50.15
2022-09-04T20:01:42.120Z,50.20
2022-09-04T20:04:12.341Z,50.22
2022-09-04T20:06:47.328Z,50.04
2022-09-04T20:09:20.406Z,50.03
2022-09-04T20:11:51.445Z,50.26
2022-09-04T20:14:25.298Z,50.20
2022-09-04T20:17:08.874Z,49.93
2022-09-04T20:19:41.075Z,50.13
2022-09-04T20:22:17.521Z,50.07
2022-09-04T20:25:01.682Z,49.85
2022-09-04T20:27:33.504Z,50.06
2022-09-04T20:30:11.284Z,49.65
2022-09-04T20:32:45.013Z,49.52
2022-09-04T20:35:33.368Z,49.44
2022-09-04T20:38:23.005Z,50.06
2022-09-04T20:40:54.898Z,49.85
2022-09-04T20:43:31.835Z,49.75
2022-09-04T20:52:20.501Z,49.85
2022-09-04T20:52:49.125Z,49.75
2022-09-04T20:53:06.686Z,49.72
2022-09-04T20:55:18.822Z,49.97
2022-09-04T21:03:05.212Z,49.57
2022-09-04T21:03:21.230Z,49.74
2022-09-04T21:04:23.762Z,49.47
2022-09-04T21:07:11.052Z,49.77
2022-09-04T21:09:54.852Z,49.86
2022-09-04T21:12:33.667Z,49.68
2022-09-04T21:15:10.441Z,49.87
2022-09-04T21:18:20.610Z,49.86
2022-09-04T21:21:03.195Z,49.59
2022-09-04T21:24:03.168Z,49.70
2022-09-04T21:26:52.578Z,49.86
2022-09-04T21:29:34.788Z,49.69
2022-09-04T21:32:30.144Z,49.60
2022-09-04T21:35:07.754Z,49.18
2022-09-04T21:37:43.701Z,49.21
2022-09-04T21:40:51.322Z,49.00
2022-09-04T21:43:49.472Z,49.35
2022-09-04T21:46:51.777Z,49.25
2022-09-04T21:49:58.042Z,49.29
2022-09-04T21:52:57.301Z,49.56
2022-09-04T22:00:54.853Z,49.43
2022-09-04T22:02:40.981Z,49.46
2022-09-04T22:02:43.610Z,49.54
2022-09-04T22:04:49.642Z,49.47
2022-09-04T22:10:08.432Z,49.53
2022-09-04T22:13:42.850Z,49.56
2022-09-04T22:13:47.955Z,49.47
2022-09-04T22:16:29.514Z,49.50
2022-09-04T22:19:29.576Z,49.49
2022-09-04T22:22:03.793Z,49.18
2022-09-04T22:25:07.517Z,49.40
2022-09-04T22:28:43.825Z,49.33
2022-09-04T22:31:37.675Z,49.53
2022-09-04T22:34:26.214Z,49.21
2022-09-04T22:37:16.912Z,49.56
2022-09-04T22:40:00.401Z,49.52
2022-09-04T22:42:47.191Z,49.56
2022-09-04T22:46:08.285Z,49.30
2022-09-04T22:49:14.686Z,49.28
2022-09-04T22:52:21.489Z,49.37
2022-09-04T22:54:58.971Z,49.34
2022-09-04T22:57:35.430Z,49.32
2022-09-04T23:00:14.439Z,49.11
2022-09-04T23:03:12.357Z,49.54
2022-09-04T23:09:04.535Z,49.41
2022-09-04T23:13:43.965Z,49.19
2022-09-04T23:13:57.990Z,49.30
2022-09-04T23:16:11.744Z,49.17
2022-09-04T23:23:03.099Z,49.35
2022-09-04T23:26:42.534Z,49.24
2022-09-04T23:26:52.820Z,49.13
2022-09-04T23:27:59.268Z,49.31
2022-09-04T23:30:27.977Z,49.10
2022-09-04T23:33:42.811Z,49.37
2022-09-04T23:36:33.615Z,48.96
2022-09-04T23:39:36.555Z,49.24
2022-09-04T23:42:30.519Z,48.94
2022-09-04T23:45:30.688Z,48.79
2022-09-04T23:48:21.224Z,49.08
2022-09-04T23:50:53.873Z,49.19
2022-09-04T23:53:32.028Z,49.26
2022-09-04T23:56:17.808Z,49.08
2022-09-04T23:59:21.417Z,49.11
